Terminal Aerodrome Forecast
Issued by NWS

Home | Current Version | Previous Version | Text Only | Print | Product List | Glossary On
Versions: 1 2 3 4 5 6 7 8 9 10 11 12 13
000
FTUS43 KMQT 011100
TAFIWD
TAF
KIWD 011135Z 0112/0212 17008KT P6SM SCT009 BKN015
      TEMPO 0112/0114 BKN009
     FM011500 17011KT P6SM OVC025
     FM012000 17009KT 6SM -SHRA OVC035
     FM020200 19007KT 5SM -SHRA BR OVC025
     FM020600 21004KT 3SM BR BKN008
      AMD LTD TO CLD VIS AND WIND=

USA.gov is the U.S. government's official web portal to all federal, state and local government web resources and services.